sensor_id;sensor_type;location;lat;lon;timestamp;P1;durP1;ratioP1;P2;durP2;ratioP2
5622;SDS011;2833;50.432;10.706;2022-07-29T00:02:17;4.27;;;3.07;;
5622;SDS011;2833;50.432;10.706;2022-07-29T00:04:42;9.53;;;3.03;;
5622;SDS011;2833;50.432;10.706;2022-07-29T00:07:07;5.80;;;2.83;;
5622;SDS011;2833;50.432;10.706;2022-07-29T00:09:32;4.30;;;2.60;;
5622;SDS011;2833;50.432;10.706;2022-07-29T00:11:58;3.00;;;2.70;;
5622;SDS011;2833;50.432;10.706;2022-07-29T00:14:24;5.73;;;3.23;;
5622;SDS011;2833;50.432;10.706;2022-07-29T00:16:49;5.00;;;3.20;;
5622;SDS011;2833;50.432;10.706;2022-07-29T00:19:14;4.10;;;2.93;;
5622;SDS011;2833;50.432;10.706;2022-07-29T00:21:39;3.87;;;3.10;;
5622;SDS011;2833;50.432;10.706;2022-07-29T00:24:05;3.90;;;3.43;;
5622;SDS011;2833;50.432;10.706;2022-07-29T00:26:30;5.10;;;3.00;;
5622;SDS011;2833;50.432;10.706;2022-07-29T00:28:58;4.00;;;2.83;;
5622;SDS011;2833;50.432;10.706;2022-07-29T00:31:23;5.20;;;3.00;;
5622;SDS011;2833;50.432;10.706;2022-07-29T00:33:48;4.67;;;3.20;;
5622;SDS011;2833;50.432;10.706;2022-07-29T00:36:13;5.07;;;3.00;;
5622;SDS011;2833;50.432;10.706;2022-07-29T00:38:39;5.70;;;3.30;;
5622;SDS011;2833;50.432;10.706;2022-07-29T00:41:06;4.63;;;3.17;;
5622;SDS011;2833;50.432;10.706;2022-07-29T00:43:31;4.10;;;2.40;;
5622;SDS011;2833;50.432;10.706;2022-07-29T00:45:57;3.33;;;2.80;;
5622;SDS011;2833;50.432;10.706;2022-07-29T00:48:22;3.73;;;2.53;;
5622;SDS011;2833;50.432;10.706;2022-07-29T00:50:47;3.83;;;2.60;;
5622;SDS011;2833;50.432;10.706;2022-07-29T00:53:14;6.70;;;2.80;;
5622;SDS011;2833;50.432;10.706;2022-07-29T00:55:39;2.97;;;2.50;;
5622;SDS011;2833;50.432;10.706;2022-07-29T00:58:04;13.90;;;3.40;;
5622;SDS011;2833;50.432;10.706;2022-07-29T01:00:30;6.00;;;2.93;;
5622;SDS011;2833;50.432;10.706;2022-07-29T01:02:55;9.53;;;2.33;;
5622;SDS011;2833;50.432;10.706;2022-07-29T01:05:22;3.90;;;2.50;;
5622;SDS011;2833;50.432;10.706;2022-07-29T01:07:48;4.47;;;2.70;;
5622;SDS011;2833;50.432;10.706;2022-07-29T01:10:14;3.50;;;2.80;;
5622;SDS011;2833;50.432;10.706;2022-07-29T01:12:39;5.17;;;2.50;;
5622;SDS011;2833;50.432;10.706;2022-07-29T01:15:06;3.97;;;2.63;;
5622;SDS011;2833;50.432;10.706;2022-07-29T01:17:33;3.50;;;2.40;;
5622;SDS011;2833;50.432;10.706;2022-07-29T01:20:03;7.43;;;2.70;;
5622;SDS011;2833;50.432;10.706;2022-07-29T01:30:12;4.47;;;2.47;;
5622;SDS011;2833;50.432;10.706;2022-07-29T01:32:38;4.60;;;2.80;;
5622;SDS011;2833;50.432;10.706;2022-07-29T01:35:21;2.60;;;2.40;;
5622;SDS011;2833;50.432;10.706;2022-07-29T01:37:49;3.27;;;2.60;;
5622;SDS011;2833;50.432;10.706;2022-07-29T01:40:27;2.87;;;2.50;;
5622;SDS011;2833;50.432;10.706;2022-07-29T01:42:54;4.67;;;2.50;;
5622;SDS011;2833;50.432;10.706;2022-07-29T01:45:28;2.70;;;2.30;;
5622;SDS011;2833;50.432;10.706;2022-07-29T01:48:16;4.10;;;2.33;;
5622;SDS011;2833;50.432;10.706;2022-07-29T01:50:52;3.17;;;2.27;;
5622;SDS011;2833;50.432;10.706;2022-07-29T01:53:23;4.50;;;3.67;;
5622;SDS011;2833;50.432;10.706;2022-07-29T01:55:50;3.97;;;2.43;;
5622;SDS011;2833;50.432;10.706;2022-07-29T01:58:17;5.07;;;2.53;;
5622;SDS011;2833;50.432;10.706;2022-07-29T02:00:42;4.47;;;3.13;;
5622;SDS011;2833;50.432;10.706;2022-07-29T02:03:09;3.17;;;2.30;;
5622;SDS011;2833;50.432;10.706;2022-07-29T02:05:35;4.57;;;2.63;;
5622;SDS011;2833;50.432;10.706;2022-07-29T02:08:02;3.87;;;2.40;;
5622;SDS011;2833;50.432;10.706;2022-07-29T02:10:30;4.00;;;2.50;;
5622;SDS011;2833;50.432;10.706;2022-07-29T02:12:56;3.30;;;2.50;;
5622;SDS011;2833;50.432;10.706;2022-07-29T02:15:25;3.30;;;2.67;;
5622;SDS011;2833;50.432;10.706;2022-07-29T02:17:53;2.87;;;2.30;;
5622;SDS011;2833;50.432;10.706;2022-07-29T02:20:19;3.97;;;2.80;;
5622;SDS011;2833;50.432;10.706;2022-07-29T02:22:45;5.40;;;2.67;;
5622;SDS011;2833;50.432;10.706;2022-07-29T02:25:11;3.43;;;2.70;;
5622;SDS011;2833;50.432;10.706;2022-07-29T02:27:37;2.67;;;2.23;;
5622;SDS011;2833;50.432;10.706;2022-07-29T02:30:02;5.63;;;2.70;;
5622;SDS011;2833;50.432;10.706;2022-07-29T02:32:28;3.10;;;2.30;;
5622;SDS011;2833;50.432;10.706;2022-07-29T02:34:54;4.43;;;2.30;;
5622;SDS011;2833;50.432;10.706;2022-07-29T02:37:20;2.10;;;1.90;;
5622;SDS011;2833;50.432;10.706;2022-07-29T02:39:46;4.83;;;2.80;;
5622;SDS011;2833;50.432;10.706;2022-07-29T02:42:15;5.10;;;2.60;;
5622;SDS011;2833;50.432;10.706;2022-07-29T02:44:41;2.90;;;2.50;;
5622;SDS011;2833;50.432;10.706;2022-07-29T02:47:41;3.17;;;2.30;;
5622;SDS011;2833;50.432;10.706;2022-07-29T02:50:06;3.83;;;2.73;;
5622;SDS011;2833;50.432;10.706;2022-07-29T02:55:13;6.63;;;2.57;;
5622;SDS011;2833;50.432;10.706;2022-07-29T02:57:41;5.07;;;2.57;;
5622;SDS011;2833;50.432;10.706;2022-07-29T03:00:08;5.60;;;2.70;;
5622;SDS011;2833;50.432;10.706;2022-07-29T03:02:34;3.00;;;2.43;;
5622;SDS011;2833;50.432;10.706;2022-07-29T03:05:00;6.87;;;3.20;;
5622;SDS011;2833;50.432;10.706;2022-07-29T03:07:26;3.03;;;2.73;;
5622;SDS011;2833;50.432;10.706;2022-07-29T03:09:51;2.50;;;2.30;;
5622;SDS011;2833;50.432;10.706;2022-07-29T03:12:17;6.60;;;3.30;;
5622;SDS011;2833;50.432;10.706;2022-07-29T03:14:43;3.93;;;3.07;;
5622;SDS011;2833;50.432;10.706;2022-07-29T03:17:09;4.60;;;2.67;;
5622;SDS011;2833;50.432;10.706;2022-07-29T03:19:34;9.40;;;2.87;;
5622;SDS011;2833;50.432;10.706;2022-07-29T03:21:59;4.40;;;2.83;;
5622;SDS011;2833;50.432;10.706;2022-07-29T03:24:31;8.83;;;2.33;;
5622;SDS011;2833;50.432;10.706;2022-07-29T03:26:56;4.10;;;2.47;;
5622;SDS011;2833;50.432;10.706;2022-07-29T03:29:22;5.90;;;2.80;;
5622;SDS011;2833;50.432;10.706;2022-07-29T03:31:48;2.97;;;2.50;;
5622;SDS011;2833;50.432;10.706;2022-07-29T03:34:13;2.97;;;2.67;;
5622;SDS011;2833;50.432;10.706;2022-07-29T03:36:38;5.50;;;2.73;;
5622;SDS011;2833;50.432;10.706;2022-07-29T03:39:03;2.30;;;2.10;;
5622;SDS011;2833;50.432;10.706;2022-07-29T03:41:29;2.70;;;2.50;;
5622;SDS011;2833;50.432;10.706;2022-07-29T03:43:55;5.47;;;2.47;;
5622;SDS011;2833;50.432;10.706;2022-07-29T03:46:21;6.60;;;2.63;;
5622;SDS011;2833;50.432;10.706;2022-07-29T03:48:48;4.90;;;2.90;;
5622;SDS011;2833;50.432;10.706;2022-07-29T03:51:15;6.50;;;2.53;;
5622;SDS011;2833;50.432;10.706;2022-07-29T03:53:40;5.03;;;2.40;;
5622;SDS011;2833;50.432;10.706;2022-07-29T03:56:05;4.87;;;2.50;;
5622;SDS011;2833;50.432;10.706;2022-07-29T03:58:31;3.90;;;2.70;;
5622;SDS011;2833;50.432;10.706;2022-07-29T04:00:57;4.53;;;2.73;;
5622;SDS011;2833;50.432;10.706;2022-07-29T04:03:22;5.23;;;2.90;;
5622;SDS011;2833;50.432;10.706;2022-07-29T04:06:06;4.00;;;2.53;;
5622;SDS011;2833;50.432;10.706;2022-07-29T04:08:32;7.90;;;2.80;;
5622;SDS011;2833;50.432;10.706;2022-07-29T04:10:58;3.67;;;3.10;;
5622;SDS011;2833;50.432;10.706;2022-07-29T04:13:23;3.90;;;2.90;;
5622;SDS011;2833;50.432;10.706;2022-07-29T04:15:48;9.90;;;3.07;;
5622;SDS011;2833;50.432;10.706;2022-07-29T04:18:13;8.03;;;2.67;;
5622;SDS011;2833;50.432;10.706;2022-07-29T04:20:39;4.80;;;3.10;;
5622;SDS011;2833;50.432;10.706;2022-07-29T04:23:04;8.50;;;3.60;;
5622;SDS011;2833;50.432;10.706;2022-07-29T04:25:29;2.50;;;2.30;;
5622;SDS011;2833;50.432;10.706;2022-07-29T04:27:54;4.20;;;2.90;;
5622;SDS011;2833;50.432;10.706;2022-07-29T04:30:25;3.50;;;3.10;;
5622;SDS011;2833;50.432;10.706;2022-07-29T04:32:50;3.77;;;3.20;;
5622;SDS011;2833;50.432;10.706;2022-07-29T04:35:16;4.47;;;2.80;;
5622;SDS011;2833;50.432;10.706;2022-07-29T04:37:41;3.17;;;2.80;;
5622;SDS011;2833;50.432;10.706;2022-07-29T04:40:06;6.50;;;2.87;;
5622;SDS011;2833;50.432;10.706;2022-07-29T04:42:31;8.93;;;2.97;;
5622;SDS011;2833;50.432;10.706;2022-07-29T04:44:57;3.93;;;2.80;;
5622;SDS011;2833;50.432;10.706;2022-07-29T04:47:22;5.13;;;2.90;;
5622;SDS011;2833;50.432;10.706;2022-07-29T04:49:47;4.93;;;2.50;;
5622;SDS011;2833;50.432;10.706;2022-07-29T04:52:12;3.60;;;2.77;;
5622;SDS011;2833;50.432;10.706;2022-07-29T04:54:37;5.30;;;3.20;;
5622;SDS011;2833;50.432;10.706;2022-07-29T04:57:02;7.43;;;3.00;;
5622;SDS011;2833;50.432;10.706;2022-07-29T04:59:28;4.67;;;3.33;;
5622;SDS011;2833;50.432;10.706;2022-07-29T05:01:53;3.00;;;2.80;;
5622;SDS011;2833;50.432;10.706;2022-07-29T05:04:18;3.47;;;2.80;;
5622;SDS011;2833;50.432;10.706;2022-07-29T05:06:43;4.60;;;3.27;;
5622;SDS011;2833;50.432;10.706;2022-07-29T05:09:08;5.23;;;2.80;;
5622;SDS011;2833;50.432;10.706;2022-07-29T05:11:34;3.40;;;2.60;;
5622;SDS011;2833;50.432;10.706;2022-07-29T05:13:59;5.03;;;2.87;;
5622;SDS011;2833;50.432;10.706;2022-07-29T05:16:24;3.97;;;2.97;;
5622;SDS011;2833;50.432;10.706;2022-07-29T05:18:49;3.07;;;2.63;;
5622;SDS011;2833;50.432;10.706;2022-07-29T05:21:14;5.60;;;3.30;;
5622;SDS011;2833;50.432;10.706;2022-07-29T05:23:40;5.43;;;3.07;;
5622;SDS011;2833;50.432;10.706;2022-07-29T05:26:05;4.90;;;2.90;;
5622;SDS011;2833;50.432;10.706;2022-07-29T05:28:33;10.37;;;3.00;;
5622;SDS011;2833;50.432;10.706;2022-07-29T05:30:59;3.43;;;3.10;;
5622;SDS011;2833;50.432;10.706;2022-07-29T05:33:25;5.23;;;3.37;;
5622;SDS011;2833;50.432;10.706;2022-07-29T05:35:50;3.17;;;2.73;;
5622;SDS011;2833;50.432;10.706;2022-07-29T05:38:16;4.97;;;2.70;;
5622;SDS011;2833;50.432;10.706;2022-07-29T05:40:41;3.50;;;2.90;;
5622;SDS011;2833;50.432;10.706;2022-07-29T05:43:06;4.23;;;2.80;;
5622;SDS011;2833;50.432;10.706;2022-07-29T05:45:31;4.73;;;3.00;;
5622;SDS011;2833;50.432;10.706;2022-07-29T05:47:57;3.63;;;3.00;;
5622;SDS011;2833;50.432;10.706;2022-07-29T05:50:22;3.33;;;2.97;;
5622;SDS011;2833;50.432;10.706;2022-07-29T05:52:47;4.83;;;3.07;;
5622;SDS011;2833;50.432;10.706;2022-07-29T05:55:12;4.53;;;3.00;;
5622;SDS011;2833;50.432;10.706;2022-07-29T05:57:37;7.87;;;2.70;;
5622;SDS011;2833;50.432;10.706;2022-07-29T06:00:03;4.40;;;3.37;;
5622;SDS011;2833;50.432;10.706;2022-07-29T06:02:28;13.07;;;2.80;;
5622;SDS011;2833;50.432;10.706;2022-07-29T06:04:53;5.27;;;3.47;;
5622;SDS011;2833;50.432;10.706;2022-07-29T06:07:18;3.70;;;2.97;;
5622;SDS011;2833;50.432;10.706;2022-07-29T06:09:44;5.10;;;3.00;;
5622;SDS011;2833;50.432;10.706;2022-07-29T06:12:09;3.50;;;2.93;;
5622;SDS011;2833;50.432;10.706;2022-07-29T06:14:34;3.53;;;2.90;;
5622;SDS011;2833;50.432;10.706;2022-07-29T06:17:00;3.80;;;3.10;;
5622;SDS011;2833;50.432;10.706;2022-07-29T06:19:25;4.87;;;3.03;;
5622;SDS011;2833;50.432;10.706;2022-07-29T06:21:50;8.70;;;3.03;;
5622;SDS011;2833;50.432;10.706;2022-07-29T06:24:16;12.57;;;3.20;;
5622;SDS011;2833;50.432;10.706;2022-07-29T06:26:41;3.90;;;3.10;;
5622;SDS011;2833;50.432;10.706;2022-07-29T06:29:07;5.97;;;3.53;;
5622;SDS011;2833;50.432;10.706;2022-07-29T06:31:32;5.67;;;3.07;;
5622;SDS011;2833;50.432;10.706;2022-07-29T06:33:57;5.50;;;2.70;;
5622;SDS011;2833;50.432;10.706;2022-07-29T06:36:22;4.63;;;2.67;;
5622;SDS011;2833;50.432;10.706;2022-07-29T06:38:48;11.53;;;2.77;;
5622;SDS011;2833;50.432;10.706;2022-07-29T06:41:13;6.73;;;2.57;;
5622;SDS011;2833;50.432;10.706;2022-07-29T06:43:41;4.00;;;2.70;;
5622;SDS011;2833;50.432;10.706;2022-07-29T06:46:07;4.70;;;2.93;;
5622;SDS011;2833;50.432;10.706;2022-07-29T06:48:32;5.43;;;2.70;;
5622;SDS011;2833;50.432;10.706;2022-07-29T06:50:58;6.53;;;2.80;;
5622;SDS011;2833;50.432;10.706;2022-07-29T06:53:24;2.90;;;2.70;;
5622;SDS011;2833;50.432;10.706;2022-07-29T06:55:49;7.93;;;4.90;;
5622;SDS011;2833;50.432;10.706;2022-07-29T06:58:14;8.87;;;4.97;;
5622;SDS011;2833;50.432;10.706;2022-07-29T07:00:42;5.13;;;3.33;;
5622;SDS011;2833;50.432;10.706;2022-07-29T07:03:07;5.40;;;3.43;;
5622;SDS011;2833;50.432;10.706;2022-07-29T07:05:33;8.53;;;4.63;;
5622;SDS011;2833;50.432;10.706;2022-07-29T07:07:58;7.67;;;4.60;;
5622;SDS011;2833;50.432;10.706;2022-07-29T07:10:23;10.83;;;4.53;;
5622;SDS011;2833;50.432;10.706;2022-07-29T07:12:48;4.70;;;2.93;;
5622;SDS011;2833;50.432;10.706;2022-07-29T07:15:13;5.23;;;3.00;;
5622;SDS011;2833;50.432;10.706;2022-07-29T07:17:39;8.60;;;3.80;;
5622;SDS011;2833;50.432;10.706;2022-07-29T07:20:05;3.60;;;3.03;;
5622;SDS011;2833;50.432;10.706;2022-07-29T07:22:30;4.30;;;3.53;;
5622;SDS011;2833;50.432;10.706;2022-07-29T07:24:55;9.37;;;3.70;;
5622;SDS011;2833;50.432;10.706;2022-07-29T07:27:21;7.73;;;3.77;;
5622;SDS011;2833;50.432;10.706;2022-07-29T07:29:46;7.47;;;3.90;;
5622;SDS011;2833;50.432;10.706;2022-07-29T07:32:11;4.43;;;3.20;;
5622;SDS011;2833;50.432;10.706;2022-07-29T07:34:38;7.10;;;3.70;;
5622;SDS011;2833;50.432;10.706;2022-07-29T07:37:03;8.80;;;3.90;;
5622;SDS011;2833;50.432;10.706;2022-07-29T07:39:28;7.43;;;3.37;;
5622;SDS011;2833;50.432;10.706;2022-07-29T07:41:53;6.03;;;3.50;;
5622;SDS011;2833;50.432;10.706;2022-07-29T07:44:19;4.40;;;3.27;;
5622;SDS011;2833;50.432;10.706;2022-07-29T07:46:44;8.40;;;3.40;;
5622;SDS011;2833;50.432;10.706;2022-07-29T07:49:10;4.90;;;3.33;;
5622;SDS011;2833;50.432;10.706;2022-07-29T07:51:35;5.40;;;3.80;;
5622;SDS011;2833;50.432;10.706;2022-07-29T07:54:00;4.73;;;3.20;;
5622;SDS011;2833;50.432;10.706;2022-07-29T07:56:25;3.40;;;2.90;;
5622;SDS011;2833;50.432;10.706;2022-07-29T07:58:51;9.03;;;2.90;;
5622;SDS011;2833;50.432;10.706;2022-07-29T08:01:16;3.20;;;2.90;;
5622;SDS011;2833;50.432;10.706;2022-07-29T08:03:43;3.77;;;3.43;;
5622;SDS011;2833;50.432;10.706;2022-07-29T08:06:09;9.17;;;3.90;;
5622;SDS011;2833;50.432;10.706;2022-07-29T08:08:34;4.30;;;3.30;;
5622;SDS011;2833;50.432;10.706;2022-07-29T08:10:59;3.50;;;3.20;;
5622;SDS011;2833;50.432;10.706;2022-07-29T08:13:26;6.10;;;3.60;;
5622;SDS011;2833;50.432;10.706;2022-07-29T08:15:53;3.53;;;3.13;;
5622;SDS011;2833;50.432;10.706;2022-07-29T08:18:36;4.87;;;3.20;;
5622;SDS011;2833;50.432;10.706;2022-07-29T08:21:01;6.07;;;3.43;;
5622;SDS011;2833;50.432;10.706;2022-07-29T08:23:26;5.63;;;3.30;;
5622;SDS011;2833;50.432;10.706;2022-07-29T08:25:59;3.70;;;3.40;;
5622;SDS011;2833;50.432;10.706;2022-07-29T08:28:24;4.77;;;3.23;;
5622;SDS011;2833;50.432;10.706;2022-07-29T08:30:50;5.27;;;3.43;;
5622;SDS011;2833;50.432;10.706;2022-07-29T08:33:15;6.57;;;3.40;;
5622;SDS011;2833;50.432;10.706;2022-07-29T08:35:40;6.90;;;3.30;;
5622;SDS011;2833;50.432;10.706;2022-07-29T08:38:05;4.23;;;2.70;;
5622;SDS011;2833;50.432;10.706;2022-07-29T08:40:30;8.90;;;3.43;;
5622;SDS011;2833;50.432;10.706;2022-07-29T08:42:56;5.27;;;3.10;;
5622;SDS011;2833;50.432;10.706;2022-07-29T08:45:21;3.67;;;3.37;;
5622;SDS011;2833;50.432;10.706;2022-07-29T08:47:48;3.63;;;3.33;;
5622;SDS011;2833;50.432;10.706;2022-07-29T08:50:13;3.40;;;3.10;;
5622;SDS011;2833;50.432;10.706;2022-07-29T08:52:39;4.50;;;3.37;;
5622;SDS011;2833;50.432;10.706;2022-07-29T08:55:06;5.37;;;3.17;;
5622;SDS011;2833;50.432;10.706;2022-07-29T08:57:31;8.73;;;4.10;;
5622;SDS011;2833;50.432;10.706;2022-07-29T08:59:57;4.50;;;3.13;;
5622;SDS011;2833;50.432;10.706;2022-07-29T09:02:24;4.20;;;3.00;;
5622;SDS011;2833;50.432;10.706;2022-07-29T09:04:51;3.77;;;3.47;;
5622;SDS011;2833;50.432;10.706;2022-07-29T09:07:17;3.80;;;3.50;;
5622;SDS011;2833;50.432;10.706;2022-07-29T09:09:43;5.17;;;3.57;;
5622;SDS011;2833;50.432;10.706;2022-07-29T09:12:11;5.70;;;3.33;;
5622;SDS011;2833;50.432;10.706;2022-07-29T09:14:40;3.83;;;3.47;;
5622;SDS011;2833;50.432;10.706;2022-07-29T09:17:05;6.10;;;3.80;;
5622;SDS011;2833;50.432;10.706;2022-07-29T09:19:32;4.10;;;3.70;;
5622;SDS011;2833;50.432;10.706;2022-07-29T09:21:59;3.77;;;3.43;;
5622;SDS011;2833;50.432;10.706;2022-07-29T09:24:26;11.70;;;3.57;;
5622;SDS011;2833;50.432;10.706;2022-07-29T09:26:51;4.20;;;3.80;;
5622;SDS011;2833;50.432;10.706;2022-07-29T09:29:18;3.90;;;3.53;;
5622;SDS011;2833;50.432;10.706;2022-07-29T09:31:47;3.60;;;3.30;;
5622;SDS011;2833;50.432;10.706;2022-07-29T09:34:13;5.40;;;4.00;;
5622;SDS011;2833;50.432;10.706;2022-07-29T09:36:43;4.90;;;3.40;;
5622;SDS011;2833;50.432;10.706;2022-07-29T09:39:08;7.23;;;3.50;;
5622;SDS011;2833;50.432;10.706;2022-07-29T09:41:49;3.80;;;3.47;;
5622;SDS011;2833;50.432;10.706;2022-07-29T09:44:17;4.00;;;3.50;;
5622;SDS011;2833;50.432;10.706;2022-07-29T09:46:59;4.80;;;4.20;;
5622;SDS011;2833;50.432;10.706;2022-07-29T09:49:30;7.47;;;3.70;;
5622;SDS011;2833;50.432;10.706;2022-07-29T09:52:06;4.90;;;3.53;;
5622;SDS011;2833;50.432;10.706;2022-07-29T09:54:32;9.70;;;3.87;;
5622;SDS011;2833;50.432;10.706;2022-07-29T09:57:04;4.10;;;3.00;;
5622;SDS011;2833;50.432;10.706;2022-07-29T09:59:30;6.60;;;3.23;;
5622;SDS011;2833;50.432;10.706;2022-07-29T10:01:55;5.10;;;3.47;;
5622;SDS011;2833;50.432;10.706;2022-07-29T10:04:20;4.53;;;3.27;;
5622;SDS011;2833;50.432;10.706;2022-07-29T10:06:55;4.07;;;3.63;;
5622;SDS011;2833;50.432;10.706;2022-07-29T10:09:20;3.60;;;3.30;;
5622;SDS011;2833;50.432;10.706;2022-07-29T10:12:01;9.80;;;3.73;;
5622;SDS011;2833;50.432;10.706;2022-07-29T10:14:27;9.47;;;3.20;;
5622;SDS011;2833;50.432;10.706;2022-07-29T10:16:52;4.90;;;3.50;;
5622;SDS011;2833;50.432;10.706;2022-07-29T10:19:18;3.70;;;3.40;;
5622;SDS011;2833;50.432;10.706;2022-07-29T10:21:44;9.80;;;3.40;;
5622;SDS011;2833;50.432;10.706;2022-07-29T10:24:09;4.33;;;3.63;;
5622;SDS011;2833;50.432;10.706;2022-07-29T10:26:35;4.40;;;3.00;;
5622;SDS011;2833;50.432;10.706;2022-07-29T10:29:02;8.20;;;3.70;;
5622;SDS011;2833;50.432;10.706;2022-07-29T10:31:34;7.07;;;3.17;;
5622;SDS011;2833;50.432;10.706;2022-07-29T10:34:07;4.50;;;3.40;;
5622;SDS011;2833;50.432;10.706;2022-07-29T10:36:44;7.67;;;3.40;;
5622;SDS011;2833;50.432;10.706;2022-07-29T10:39:16;6.83;;;4.07;;
5622;SDS011;2833;50.432;10.706;2022-07-29T10:44:21;8.30;;;3.97;;
5622;SDS011;2833;50.432;10.706;2022-07-29T10:46:47;9.03;;;4.17;;
5622;SDS011;2833;50.432;10.706;2022-07-29T10:49:17;8.17;;;4.10;;
5622;SDS011;2833;50.432;10.706;2022-07-29T10:59:35;4.97;;;4.50;;
5622;SDS011;2833;50.432;10.706;2022-07-29T11:02:00;9.13;;;6.10;;
5622;SDS011;2833;50.432;10.706;2022-07-29T11:07:10;4.97;;;4.57;;
5622;SDS011;2833;50.432;10.706;2022-07-29T11:09:35;5.70;;;4.10;;
5622;SDS011;2833;50.432;10.706;2022-07-29T11:12:00;6.27;;;4.07;;
5622;SDS011;2833;50.432;10.706;2022-07-29T11:15:08;5.27;;;4.37;;
5622;SDS011;2833;50.432;10.706;2022-07-29T11:17:14;4.60;;;4.20;;
5622;SDS011;2833;50.432;10.706;2022-07-29T11:19:39;4.07;;;3.70;;
5622;SDS011;2833;50.432;10.706;2022-07-29T11:22:07;6.43;;;3.90;;
5622;SDS011;2833;50.432;10.706;2022-07-29T11:24:33;5.80;;;4.60;;
5622;SDS011;2833;50.432;10.706;2022-07-29T11:27:32;4.80;;;4.30;;
5622;SDS011;2833;50.432;10.706;2022-07-29T11:29:57;5.93;;;4.00;;
5622;SDS011;2833;50.432;10.706;2022-07-29T11:32:23;9.07;;;4.23;;
5622;SDS011;2833;50.432;10.706;2022-07-29T11:35:10;6.97;;;4.53;;
5622;SDS011;2833;50.432;10.706;2022-07-29T11:37:35;8.33;;;4.60;;
5622;SDS011;2833;50.432;10.706;2022-07-29T11:47:50;5.20;;;4.70;;
5622;SDS011;2833;50.432;10.706;2022-07-29T11:50:17;4.60;;;4.13;;
5622;SDS011;2833;50.432;10.706;2022-07-29T11:52:43;7.17;;;4.40;;
5622;SDS011;2833;50.432;10.706;2022-07-29T11:55:11;11.03;;;4.73;;
5622;SDS011;2833;50.432;10.706;2022-07-29T11:57:38;4.20;;;3.83;;
5622;SDS011;2833;50.432;10.706;2022-07-29T12:00:10;4.90;;;3.70;;
5622;SDS011;2833;50.432;10.706;2022-07-29T12:02:42;5.23;;;4.00;;
5622;SDS011;2833;50.432;10.706;2022-07-29T12:05:08;4.97;;;3.63;;
5622;SDS011;2833;50.432;10.706;2022-07-29T12:07:35;4.93;;;3.97;;
5622;SDS011;2833;50.432;10.706;2022-07-29T12:10:00;3.80;;;3.50;;
5622;SDS011;2833;50.432;10.706;2022-07-29T12:12:25;5.47;;;4.00;;
5622;SDS011;2833;50.432;10.706;2022-07-29T12:14:51;6.67;;;4.43;;
5622;SDS011;2833;50.432;10.706;2022-07-29T12:19:54;4.10;;;3.70;;
5622;SDS011;2833;50.432;10.706;2022-07-29T12:22:29;17.50;;;5.90;;
5622;SDS011;2833;50.432;10.706;2022-07-29T12:25:00;4.20;;;3.80;;
5622;SDS011;2833;50.432;10.706;2022-07-29T12:27:25;4.50;;;4.10;;
5622;SDS011;2833;50.432;10.706;2022-07-29T12:29:57;4.37;;;3.97;;
5622;SDS011;2833;50.432;10.706;2022-07-29T12:32:30;6.33;;;3.83;;
5622;SDS011;2833;50.432;10.706;2022-07-29T12:34:55;4.47;;;4.07;;
5622;SDS011;2833;50.432;10.706;2022-07-29T12:37:20;5.33;;;4.17;;
5622;SDS011;2833;50.432;10.706;2022-07-29T12:39:46;4.33;;;3.93;;
5622;SDS011;2833;50.432;10.706;2022-07-29T12:42:15;4.80;;;3.80;;
5622;SDS011;2833;50.432;10.706;2022-07-29T12:44:44;3.87;;;3.50;;
5622;SDS011;2833;50.432;10.706;2022-07-29T12:47:09;3.90;;;3.60;;
5622;SDS011;2833;50.432;10.706;2022-07-29T12:49:34;3.83;;;3.50;;
5622;SDS011;2833;50.432;10.706;2022-07-29T12:51:59;4.20;;;3.80;;
5622;SDS011;2833;50.432;10.706;2022-07-29T12:54:26;5.13;;;3.80;;
5622;SDS011;2833;50.432;10.706;2022-07-29T12:56:57;3.87;;;3.43;;
5622;SDS011;2833;50.432;10.706;2022-07-29T12:59:23;3.90;;;3.60;;
5622;SDS011;2833;50.432;10.706;2022-07-29T13:01:49;10.53;;;3.87;;
5622;SDS011;2833;50.432;10.706;2022-07-29T13:04:28;4.57;;;4.13;;
5622;SDS011;2833;50.432;10.706;2022-07-29T13:07:00;4.63;;;4.20;;
5622;SDS011;2833;50.432;10.706;2022-07-29T13:09:35;4.10;;;3.80;;
5622;SDS011;2833;50.432;10.706;2022-07-29T13:12:01;4.07;;;3.63;;
5622;SDS011;2833;50.432;10.706;2022-07-29T13:14:35;4.50;;;4.10;;
5622;SDS011;2833;50.432;10.706;2022-07-29T13:19:35;5.73;;;3.93;;
5622;SDS011;2833;50.432;10.706;2022-07-29T13:22:00;4.53;;;3.50;;
5622;SDS011;2833;50.432;10.706;2022-07-29T13:24:25;4.27;;;3.70;;
5622;SDS011;2833;50.432;10.706;2022-07-29T13:26:50;4.07;;;3.70;;
5622;SDS011;2833;50.432;10.706;2022-07-29T13:29:16;5.37;;;4.00;;
5622;SDS011;2833;50.432;10.706;2022-07-29T13:31:41;4.20;;;3.17;;
5622;SDS011;2833;50.432;10.706;2022-07-29T13:34:07;2.90;;;2.70;;
5622;SDS011;2833;50.432;10.706;2022-07-29T13:36:32;3.57;;;3.27;;
5622;SDS011;2833;50.432;10.706;2022-07-29T13:38:57;4.30;;;3.37;;
5622;SDS011;2833;50.432;10.706;2022-07-29T13:41:22;3.53;;;3.23;;
5622;SDS011;2833;50.432;10.706;2022-07-29T13:43:47;4.53;;;4.07;;
5622;SDS011;2833;50.432;10.706;2022-07-29T13:46:12;3.87;;;3.40;;
5622;SDS011;2833;50.432;10.706;2022-07-29T13:48:38;4.63;;;4.23;;
5622;SDS011;2833;50.432;10.706;2022-07-29T13:51:03;6.50;;;4.30;;
5622;SDS011;2833;50.432;10.706;2022-07-29T13:53:28;4.63;;;4.23;;
5622;SDS011;2833;50.432;10.706;2022-07-29T13:55:54;6.50;;;3.97;;
5622;SDS011;2833;50.432;10.706;2022-07-29T13:58:19;4.40;;;4.00;;
5622;SDS011;2833;50.432;10.706;2022-07-29T14:00:44;7.37;;;4.30;;
5622;SDS011;2833;50.432;10.706;2022-07-29T14:03:10;6.27;;;5.00;;
5622;SDS011;2833;50.432;10.706;2022-07-29T14:05:35;4.07;;;3.73;;
5622;SDS011;2833;50.432;10.706;2022-07-29T14:08:00;5.60;;;4.83;;
5622;SDS011;2833;50.432;10.706;2022-07-29T14:10:25;5.10;;;4.30;;
5622;SDS011;2833;50.432;10.706;2022-07-29T14:12:51;5.47;;;4.20;;
5622;SDS011;2833;50.432;10.706;2022-07-29T14:15:16;7.13;;;4.43;;
5622;SDS011;2833;50.432;10.706;2022-07-29T14:17:42;4.70;;;4.30;;
5622;SDS011;2833;50.432;10.706;2022-07-29T14:20:07;4.70;;;4.20;;
5622;SDS011;2833;50.432;10.706;2022-07-29T14:22:32;5.73;;;4.37;;
5622;SDS011;2833;50.432;10.706;2022-07-29T14:24:58;4.20;;;3.70;;
5622;SDS011;2833;50.432;10.706;2022-07-29T14:27:23;4.10;;;3.70;;
5622;SDS011;2833;50.432;10.706;2022-07-29T14:29:48;4.83;;;4.27;;
5622;SDS011;2833;50.432;10.706;2022-07-29T14:32:14;4.47;;;4.03;;
5622;SDS011;2833;50.432;10.706;2022-07-29T14:34:39;6.30;;;3.93;;
5622;SDS011;2833;50.432;10.706;2022-07-29T14:37:05;5.43;;;3.37;;
5622;SDS011;2833;50.432;10.706;2022-07-29T14:39:30;5.27;;;3.93;;
5622;SDS011;2833;50.432;10.706;2022-07-29T14:41:55;4.30;;;3.90;;
5622;SDS011;2833;50.432;10.706;2022-07-29T14:44:21;4.07;;;3.67;;
5622;SDS011;2833;50.432;10.706;2022-07-29T14:46:46;3.83;;;3.47;;
5622;SDS011;2833;50.432;10.706;2022-07-29T14:49:11;3.83;;;3.53;;
5622;SDS011;2833;50.432;10.706;2022-07-29T14:51:36;4.93;;;3.90;;
5622;SDS011;2833;50.432;10.706;2022-07-29T14:54:02;4.60;;;3.90;;
5622;SDS011;2833;50.432;10.706;2022-07-29T14:56:27;4.20;;;3.80;;
5622;SDS011;2833;50.432;10.706;2022-07-29T14:58:54;3.97;;;3.67;;
5622;SDS011;2833;50.432;10.706;2022-07-29T15:01:19;4.33;;;3.20;;
5622;SDS011;2833;50.432;10.706;2022-07-29T15:03:45;5.57;;;4.13;;
5622;SDS011;2833;50.432;10.706;2022-07-29T15:06:10;3.53;;;3.23;;
5622;SDS011;2833;50.432;10.706;2022-07-29T15:08:36;4.57;;;4.17;;
5622;SDS011;2833;50.432;10.706;2022-07-29T15:11:01;7.90;;;4.30;;
5622;SDS011;2833;50.432;10.706;2022-07-29T15:13:26;5.50;;;3.60;;
5622;SDS011;2833;50.432;10.706;2022-07-29T15:15:52;4.47;;;4.03;;
5622;SDS011;2833;50.432;10.706;2022-07-29T15:18:17;3.80;;;3.50;;
5622;SDS011;2833;50.432;10.706;2022-07-29T15:20:42;6.43;;;4.17;;
5622;SDS011;2833;50.432;10.706;2022-07-29T15:23:09;4.10;;;3.67;;
5622;SDS011;2833;50.432;10.706;2022-07-29T15:25:35;4.90;;;3.87;;
5622;SDS011;2833;50.432;10.706;2022-07-29T15:28:01;3.90;;;3.60;;
5622;SDS011;2833;50.432;10.706;2022-07-29T15:30:29;4.30;;;3.90;;
5622;SDS011;2833;50.432;10.706;2022-07-29T15:32:54;3.80;;;3.50;;
5622;SDS011;2833;50.432;10.706;2022-07-29T15:35:19;3.70;;;3.40;;